Time;durP1;ratioP1;P1;durP2;ratioP2;P2;SDS_P1;SDS_P2;PMS_P1;PMS_P2;Temp;Humidity;BMP_temperature;BMP_pressure;BME280_temperature;BME280_humidity;BME280_pressure;Samples;Min_cycle;Max_cycle;Signal;HPM_P1;HPM_P2
2022/12/03 00:01:35;;;;;;;;;;;3.60;99.90;;;;;;5046821;28;19925;-74
2022/12/03 00:04:01;;;;;;;;;;;3.70;99.90;;;;;;5013510;28;19976;-73
2022/12/03 00:06:26;;;;;;;;;;;3.70;99.90;;;;;;5007670;28;19975;-74
2022/12/03 00:08:52;;;;;;;;;;;3.70;99.90;;;;;;4991981;28;19930;-73
2022/12/03 00:11:18;;;;;;;;;;;3.80;99.90;;;;;;4975526;28;19926;-75
2022/12/03 00:13:44;;;;;;;;;;;3.80;99.90;;;;;;4992206;28;19930;-75
2022/12/03 00:16:10;;;;;;;;;;;3.80;99.90;;;;;;5024003;28;20436;-74
2022/12/03 00:18:35;;;;;;;;;;;3.90;99.90;;;;;;4990910;28;19992;-75
2022/12/03 00:21:01;;;;;;;;;;;4.00;99.90;;;;;;4991114;28;19930;-75
2022/12/03 00:23:26;;;;;;;;;;;3.80;99.90;;;;;;4992093;28;19933;-75
2022/12/03 00:25:52;;;;;;;;;;;4.30;99.90;;;;;;4991873;28;19926;-73
2022/12/03 00:28:17;;;;;;;;;;;3.80;99.90;;;;;;5024060;28;19928;-73
2022/12/03 00:30:43;;;;;;;;;;;3.80;99.90;;;;;;4990000;28;19930;-74
2022/12/03 00:33:09;;;;;;;;;;;3.80;99.90;;;;;;5007035;28;19926;-74
2022/12/03 00:35:34;;;;;;;;;;;3.80;99.90;;;;;;5023497;28;19926;-74
2022/12/03 00:38:00;;;;;;;;;;;3.80;99.90;;;;;;5006976;28;19926;-74
2022/12/03 00:40:25;;;;;;;;;;;3.80;99.90;;;;;;4991962;28;20424;-74
2022/12/03 00:42:51;;;;;;;;;;;3.90;99.90;;;;;;4991705;28;19957;-73
2022/12/03 00:45:16;;;;;;;;;;;3.90;99.90;;;;;;4990647;28;19926;-75
2022/12/03 00:47:42;;;;;;;;;;;3.90;99.90;;;;;;4990950;28;19948;-73
2022/12/03 00:50:08;;;;;;;;;;;4.30;99.90;;;;;;4991619;28;19926;-73
2022/12/03 00:52:33;;;;;;;;;;;3.90;99.90;;;;;;4991907;28;19976;-74
2022/12/03 00:54:59;;;;;;;;;;;3.90;99.90;;;;;;5023242;28;19975;-73
2022/12/03 00:57:24;;;;;;;;;;;3.90;99.90;;;;;;5006468;28;19949;-74
2022/12/03 00:59:50;;;;;;;;;;;3.90;99.90;;;;;;4990175;28;19939;-73
2022/12/03 01:02:16;;;;;;;;;;;3.90;99.90;;;;;;4990729;28;19926;-73
2022/12/03 01:04:41;;;;;;;;;;;3.90;99.90;;;;;;4973619;28;19933;-75
2022/12/03 01:07:07;;;;;;;;;;;3.90;99.90;;;;;;4974412;28;20315;-74
2022/12/03 01:09:32;;;;;;;;;;;4.00;99.90;;;;;;5023345;28;19926;-73
2022/12/03 01:11:58;;;;;;;;;;;4.00;99.90;;;;;;5022892;28;19926;-73
2022/12/03 01:14:23;;;;;;;;;;;4.00;99.90;;;;;;4958088;28;20270;-75
2022/12/03 01:16:49;;;;;;;;;;;4.00;99.90;;;;;;5022907;28;20054;-74
2022/12/03 01:19:15;;;;;;;;;;;4.10;99.90;;;;;;4991394;28;20353;-73
2022/12/03 01:21:42;;;;;;;;;;;4.00;99.90;;;;;;5006530;28;20329;-74
2022/12/03 01:24:07;;;;;;;;;;;4.10;99.90;;;;;;5022787;28;19926;-74
2022/12/03 01:26:33;;;;;;;;;;;4.10;99.90;;;;;;4973064;28;19933;-74
2022/12/03 01:28:58;;;;;;;;;;;4.10;99.90;;;;;;4990583;28;19926;-73
2022/12/03 01:34:08;;;;;;;;;;;4.10;99.90;;;;;;5007834;28;19933;-74
2022/12/03 01:36:34;;;;;;;;;;;4.10;99.90;;;;;;4973436;28;19933;-73
2022/12/03 01:39:00;;;;;;;;;;;4.10;99.90;;;;;;5022364;28;19925;-73
2022/12/03 01:41:26;;;;;;;;;;;4.10;99.90;;;;;;4991065;28;19977;-73
2022/12/03 01:43:52;;;;;;;;;;;4.10;99.90;;;;;;5022394;28;19992;-74
2022/12/03 01:46:19;;;;;;;;;;;4.10;99.90;;;;;;4990864;28;19922;-74
2022/12/03 01:48:46;;;;;;;;;;;4.10;99.90;;;;;;5006122;28;20285;-74
2022/12/03 01:51:12;;;;;;;;;;;4.10;99.90;;;;;;4990796;28;20236;-73
2022/12/03 01:53:38;;;;;;;;;;;4.10;99.90;;;;;;4957605;28;20286;-74
2022/12/03 01:56:03;;;;;;;;;;;4.10;99.90;;;;;;4990310;28;19940;-74
2022/12/03 01:58:29;;;;;;;;;;;4.10;99.90;;;;;;5005711;28;19974;-73
2022/12/03 02:01:00;;;;;;;;;;;4.10;99.90;;;;;;5021983;28;20282;-73
2022/12/03 02:03:26;;;;;;;;;;;4.10;99.90;;;;;;5021854;28;20374;-72
2022/12/03 02:05:52;;;;;;;;;;;4.00;99.90;;;;;;5021942;28;20087;-74
2022/12/03 02:08:28;;;;;;;;;;;4.00;99.90;;;;;;5005948;28;19978;-74
2022/12/03 02:10:53;;;;;;;;;;;4.00;99.90;;;;;;5021910;28;19926;-73
2022/12/03 02:13:19;;;;;;;;;;;4.00;99.90;;;;;;5022548;28;20263;-74
2022/12/03 02:15:44;;;;;;;;;;;4.00;99.90;;;;;;4990353;28;19928;-73
2022/12/03 02:18:10;;;;;;;;;;;4.00;99.90;;;;;;5021741;28;19925;-74
2022/12/03 02:20:40;;;;;;;;;;;4.10;99.90;;;;;;4973190;28;19926;-73
2022/12/03 02:23:12;;;;;;;;;;;4.10;99.90;;;;;;4990043;28;19976;-74
2022/12/03 02:25:38;;;;;;;;;;;4.30;99.90;;;;;;5022129;28;20301;-73
2022/12/03 02:28:04;;;;;;;;;;;4.10;99.90;;;;;;5004892;28;20021;-73
2022/12/03 02:30:30;;;;;;;;;;;4.10;99.90;;;;;;5022049;28;19926;-73
2022/12/03 02:32:56;;;;;;;;;;;4.10;99.90;;;;;;4989976;28;20347;-74
2022/12/03 02:35:24;;;;;;;;;;;4.20;99.90;;;;;;5004722;28;20341;-73
2022/12/03 02:37:51;;;;;;;;;;;4.10;99.90;;;;;;5022244;28;19925;-74
2022/12/03 02:40:18;;;;;;;;;;;4.10;99.90;;;;;;5021635;28;20180;-74
2022/12/03 02:42:44;;;;;;;;;;;4.10;99.90;;;;;;4990115;28;19930;-74
2022/12/03 02:45:14;;;;;;;;;;;4.10;99.90;;;;;;5021371;28;19933;-74
2022/12/03 02:47:44;;;;;;;;;;;4.10;99.90;;;;;;5025085;28;19932;-73
2022/12/03 02:50:10;;;;;;;;;;;4.00;99.90;;;;;;5008754;28;20275;-74
2022/12/03 02:52:36;;;;;;;;;;;4.00;99.90;;;;;;4992503;28;19932;-73
2022/12/03 02:55:04;;;;;;;;;;;4.00;99.90;;;;;;4993258;28;19926;-76
2022/12/03 02:57:30;;;;;;;;;;;4.00;99.90;;;;;;4993282;28;19926;-74
2022/12/03 02:59:55;;;;;;;;;;;3.90;99.90;;;;;;5025171;28;20382;-73
2022/12/03 03:02:21;;;;;;;;;;;3.90;99.90;;;;;;4993542;28;19933;-72
2022/12/03 03:04:47;;;;;;;;;;;3.90;99.90;;;;;;4997984;28;19986;-74
2022/12/03 03:07:13;;;;;;;;;;;3.80;99.90;;;;;;5048017;28;20020;-74
2022/12/03 03:09:39;;;;;;;;;;;3.80;99.90;;;;;;5048493;28;19933;-74
2022/12/03 03:12:05;;;;;;;;;;;3.80;99.90;;;;;;5047602;28;19926;-73
2022/12/03 03:14:31;;;;;;;;;;;3.80;99.90;;;;;;5031521;28;20022;-75
2022/12/03 03:16:57;;;;;;;;;;;3.80;99.90;;;;;;5032388;28;19936;-74
2022/12/03 03:19:23;;;;;;;;;;;3.80;99.90;;;;;;5064651;27;19926;-74
2022/12/03 03:21:49;;;;;;;;;;;3.70;99.90;;;;;;5047816;28;20549;-72
2022/12/03 03:24:14;;;;;;;;;;;3.80;99.90;;;;;;5014580;28;20059;-73
2022/12/03 03:26:40;;;;;;;;;;;3.80;99.90;;;;;;5032493;28;19929;-73
2022/12/03 03:29:06;;;;;;;;;;;3.70;99.90;;;;;;5047330;28;19925;-72
2022/12/03 03:31:31;;;;;;;;;;;3.80;99.90;;;;;;5032234;28;20514;-73
2022/12/03 03:33:57;;;;;;;;;;;3.70;99.90;;;;;;5032398;28;19925;-74
2022/12/03 03:36:23;;;;;;;;;;;3.70;99.90;;;;;;5031907;28;20020;-74
2022/12/03 03:38:48;;;;;;;;;;;3.70;99.90;;;;;;5047244;28;19961;-74
2022/12/03 03:41:16;;;;;;;;;;;3.70;99.90;;;;;;5031842;28;20341;-73
2022/12/03 03:43:43;;;;;;;;;;;3.70;99.90;;;;;;5047621;28;19975;-73
2022/12/03 03:46:09;;;;;;;;;;;3.70;99.90;;;;;;5030764;28;19925;-74
2022/12/03 03:48:35;;;;;;;;;;;3.60;99.90;;;;;;5047545;28;20001;-73
2022/12/03 03:51:02;;;;;;;;;;;3.60;99.90;;;;;;5047536;28;20378;-74
2022/12/03 03:53:28;;;;;;;;;;;3.60;99.90;;;;;;5047033;28;20385;-73
2022/12/03 03:55:54;;;;;;;;;;;3.60;99.90;;;;;;5047314;28;19936;-73
2022/12/03 03:58:20;;;;;;;;;;;4.40;99.90;;;;;;5046804;28;19925;-72
2022/12/03 04:00:46;;;;;;;;;;;3.60;99.90;;;;;;5047307;28;19932;-74
2022/12/03 04:03:12;;;;;;;;;;;3.60;99.90;;;;;;5031371;28;19925;-72
2022/12/03 04:05:38;;;;;;;;;;;3.90;99.90;;;;;;5031937;28;19931;-74
2022/12/03 04:08:03;;;;;;;;;;;3.60;99.90;;;;;;5031648;28;19929;-72
2022/12/03 04:13:13;;;;;;;;;;;3.60;99.90;;;;;;5047227;28;20168;-73
2022/12/03 04:15:39;;;;;;;;;;;3.60;99.90;;;;;;5063727;28;19925;-73
2022/12/03 04:20:49;;;;;;;;;;;3.60;99.90;;;;;;5047345;28;19925;-73
2022/12/03 04:23:14;;;;;;;;;;;3.60;99.90;;;;;;5030105;28;20346;-72
2022/12/03 04:36:37;;;;;;;;;;;4.00;99.90;;;;;;5046782;28;19976;-74
2022/12/03 04:39:03;;;;;;;;;;;3.60;99.90;;;;;;5031144;28;20024;-73
2022/12/03 04:41:29;;;;;;;;;;;3.60;99.90;;;;;;5029873;28;20394;-73
2022/12/03 04:46:38;;;;;;;;;;;3.50;99.90;;;;;;5060908;28;19933;-73
2022/12/03 04:49:04;;;;;;;;;;;3.50;99.90;;;;;;5013506;28;19925;-74
2022/12/03 04:51:29;;;;;;;;;;;3.50;99.90;;;;;;5046599;28;19929;-73
2022/12/03 04:53:55;;;;;;;;;;;3.50;99.90;;;;;;5031568;28;20393;-74
2022/12/03 04:56:20;;;;;;;;;;;3.50;99.90;;;;;;5045877;28;19925;-74
2022/12/03 04:58:46;;;;;;;;;;;3.50;99.90;;;;;;5046639;28;19932;-73
2022/12/03 05:01:12;;;;;;;;;;;3.50;99.90;;;;;;5029871;28;19936;-73
2022/12/03 05:03:38;;;;;;;;;;;3.50;99.90;;;;;;5046168;28;20316;-74
2022/12/03 05:06:04;;;;;;;;;;;3.60;99.90;;;;;;5029756;28;19964;-73
2022/12/03 05:08:29;;;;;;;;;;;3.50;99.90;;;;;;5045211;28;19925;-73
2022/12/03 05:10:55;;;;;;;;;;;3.50;99.90;;;;;;5046332;28;19925;-73
2022/12/03 05:13:20;;;;;;;;;;;3.40;99.90;;;;;;5029030;28;20020;-73
2022/12/03 05:15:46;;;;;;;;;;;3.40;99.90;;;;;;5045718;28;19933;-74
2022/12/03 05:18:11;;;;;;;;;;;3.40;99.90;;;;;;5029669;28;20323;-73
2022/12/03 05:20:40;;;;;;;;;;;3.40;99.90;;;;;;5012909;28;19925;-73
2022/12/03 05:23:06;;;;;;;;;;;4.00;99.90;;;;;;5045922;28;20297;-73
2022/12/03 05:25:32;;;;;;;;;;;3.40;99.90;;;;;;5045883;28;19929;-73
2022/12/03 05:27:57;;;;;;;;;;;3.40;99.90;;;;;;5046067;28;20012;-73
2022/12/03 05:30:23;;;;;;;;;;;3.60;99.90;;;;;;5012669;28;20287;-74
2022/12/03 05:32:49;;;;;;;;;;;3.40;99.90;;;;;;5046121;28;19932;-73
2022/12/03 05:35:14;;;;;;;;;;;3.40;99.90;;;;;;5030198;28;19925;-73
2022/12/03 05:37:40;;;;;;;;;;;3.30;99.90;;;;;;5012727;28;19932;-73
2022/12/03 05:40:06;;;;;;;;;;;3.30;99.90;;;;;;5045776;28;19926;-73
2022/12/03 05:45:16;;;;;;;;;;;3.40;99.90;;;;;;5060206;28;19929;-74
2022/12/03 05:47:41;;;;;;;;;;;3.30;99.90;;;;;;5028952;28;19925;-73
2022/12/03 05:50:07;;;;;;;;;;;3.40;99.90;;;;;;5045297;28;20344;-73
2022/12/03 05:52:32;;;;;;;;;;;3.30;99.90;;;;;;5028963;28;19932;-73
2022/12/03 05:54:58;;;;;;;;;;;3.30;99.90;;;;;;5045401;28;19925;-74
2022/12/03 05:57:24;;;;;;;;;;;3.30;99.90;;;;;;5045467;28;19986;-73
2022/12/03 06:00:07;;;;;;;;;;;3.30;99.90;;;;;;5024026;28;20161;-74
2022/12/03 06:02:33;;;;;;;;;;;3.30;99.90;;;;;;5012114;28;20308;-73
2022/12/03 06:04:58;;;;;;;;;;;3.30;99.90;;;;;;5028353;28;19932;-73
2022/12/03 06:07:24;;;;;;;;;;;3.30;99.90;;;;;;5045370;28;19929;-72
2022/12/03 06:09:49;;;;;;;;;;;3.30;99.90;;;;;;5013427;28;20389;-73
2022/12/03 06:12:15;;;;;;;;;;;3.30;99.90;;;;;;5029430;28;19925;-72
2022/12/03 06:14:41;;;;;;;;;;;3.30;99.90;;;;;;5029429;28;19926;-73
2022/12/03 06:17:06;;;;;;;;;;;3.30;99.90;;;;;;5045997;28;19964;-73
2022/12/03 06:19:32;;;;;;;;;;;3.40;99.90;;;;;;5045769;28;20501;-73
2022/12/03 06:21:58;;;;;;;;;;;3.30;99.90;;;;;;5046399;28;19925;-73
2022/12/03 06:24:23;;;;;;;;;;;3.40;99.90;;;;;;5030088;28;20298;-73
2022/12/03 06:26:49;;;;;;;;;;;3.40;99.90;;;;;;5045465;28;19925;-73
2022/12/03 06:29:15;;;;;;;;;;;3.40;99.90;;;;;;5029437;28;20406;-73
2022/12/03 06:31:40;;;;;;;;;;;3.30;99.90;;;;;;5029044;28;19925;-73
2022/12/03 06:34:06;;;;;;;;;;;3.30;99.90;;;;;;5012238;28;19954;-73
2022/12/03 06:36:31;;;;;;;;;;;3.30;99.90;;;;;;5061171;28;20294;-73
2022/12/03 06:38:57;;;;;;;;;;;3.30;99.90;;;;;;5061951;28;19925;-73
2022/12/03 06:41:23;;;;;;;;;;;3.30;99.90;;;;;;5029135;28;20366;-73
2022/12/03 06:43:48;;;;;;;;;;;3.30;99.90;;;;;;5029319;28;20335;-72
2022/12/03 06:46:14;;;;;;;;;;;3.70;99.90;;;;;;5044463;28;19929;-73
2022/12/03 06:48:39;;;;;;;;;;;3.20;99.90;;;;;;5044530;28;20389;-73
2022/12/03 06:51:05;;;;;;;;;;;3.20;99.90;;;;;;5044523;28;19925;-73
2022/12/03 06:53:30;;;;;;;;;;;3.20;99.90;;;;;;5044654;28;19929;-72
2022/12/03 06:55:56;;;;;;;;;;;3.20;99.90;;;;;;5044445;28;19932;-71
2022/12/03 06:58:21;;;;;;;;;;;3.20;99.90;;;;;;5044415;28;19932;-73
2022/12/03 07:00:47;;;;;;;;;;;3.50;99.90;;;;;;5044425;28;19925;-73
2022/12/03 07:03:12;;;;;;;;;;;3.20;99.90;;;;;;5044367;28;19978;-73
2022/12/03 07:05:38;;;;;;;;;;;3.20;99.90;;;;;;5027580;28;19925;-73
2022/12/03 07:08:04;;;;;;;;;;;3.60;99.90;;;;;;5044829;28;20309;-73
2022/12/03 07:10:30;;;;;;;;;;;3.10;99.90;;;;;;5044055;28;20011;-72
2022/12/03 07:12:55;;;;;;;;;;;3.10;99.90;;;;;;5044598;28;19948;-73
2022/12/03 07:15:21;;;;;;;;;;;3.10;99.90;;;;;;4994647;28;19932;-74
2022/12/03 07:17:47;;;;;;;;;;;3.10;99.90;;;;;;4994987;28;19964;-72
2022/12/03 07:20:13;;;;;;;;;;;3.10;99.90;;;;;;5027987;28;20278;-72
2022/12/03 07:22:38;;;;;;;;;;;3.10;99.90;;;;;;5043631;28;19925;-73
2022/12/03 07:25:04;;;;;;;;;;;3.10;99.90;;;;;;5028975;28;19926;-72
2022/12/03 07:27:30;;;;;;;;;;;3.10;99.90;;;;;;4995116;28;19925;-72
2022/12/03 07:29:55;;;;;;;;;;;3.40;99.90;;;;;;5043499;28;19977;-72
2022/12/03 07:32:21;;;;;;;;;;;3.10;99.90;;;;;;5028853;28;19926;-73
2022/12/03 07:34:47;;;;;;;;;;;3.00;99.90;;;;;;5031612;28;20003;-73
2022/12/03 07:37:12;;;;;;;;;;;3.10;99.90;;;;;;5047694;28;20434;-72
2022/12/03 07:39:38;;;;;;;;;;;3.30;99.90;;;;;;5047478;28;20019;-72
2022/12/03 07:42:03;;;;;;;;;;;3.10;99.90;;;;;;5047205;28;20298;-72
2022/12/03 07:44:30;;;;;;;;;;;3.00;99.90;;;;;;5047703;28;19925;-73
2022/12/03 07:46:56;;;;;;;;;;;3.10;99.90;;;;;;5030319;28;19933;-73
2022/12/03 07:49:22;;;;;;;;;;;3.20;99.90;;;;;;5047311;28;19974;-73
2022/12/03 07:51:53;;;;;;;;;;;3.00;99.90;;;;;;5063831;28;19926;-72
2022/12/03 07:54:19;;;;;;;;;;;3.00;99.90;;;;;;5030167;28;19925;-72
2022/12/03 07:56:44;;;;;;;;;;;3.10;99.90;;;;;;5046273;28;20030;-71
2022/12/03 07:59:10;;;;;;;;;;;3.00;99.90;;;;;;5047195;28;19968;-73
2022/12/03 08:01:35;;;;;;;;;;;3.20;99.90;;;;;;5063882;28;20023;-72
2022/12/03 08:04:01;;;;;;;;;;;3.00;99.90;;;;;;5031024;28;19926;-73
2022/12/03 08:06:26;;;;;;;;;;;3.00;99.90;;;;;;5030912;28;19983;-73
2022/12/03 08:08:52;;;;;;;;;;;2.90;99.90;;;;;;5046810;28;19931;-72
2022/12/03 08:11:17;;;;;;;;;;;2.90;99.90;;;;;;5047117;28;19950;-72
2022/12/03 08:13:43;;;;;;;;;;;3.00;99.90;;;;;;5030293;28;19984;-72
2022/12/03 08:16:16;;;;;;;;;;;2.90;99.90;;;;;;5046915;28;19925;-73
2022/12/03 08:18:42;;;;;;;;;;;2.90;99.90;;;;;;5031327;28;20098;-73
2022/12/03 08:21:11;;;;;;;;;;;2.90;99.90;;;;;;5047155;28;20012;-72
2022/12/03 08:23:37;;;;;;;;;;;2.90;99.90;;;;;;5031439;28;19925;-71
2022/12/03 08:26:10;;;;;;;;;;;2.90;99.90;;;;;;5063471;28;19986;-73
2022/12/03 08:28:36;;;;;;;;;;;2.90;99.90;;;;;;5046717;28;20313;-72
2022/12/03 08:31:08;;;;;;;;;;;2.90;99.90;;;;;;5046356;28;19974;-73
2022/12/03 08:33:35;;;;;;;;;;;2.90;99.90;;;;;;5046833;28;20333;-72
2022/12/03 08:36:01;;;;;;;;;;;2.90;99.90;;;;;;5030928;28;19962;-73
2022/12/03 08:38:28;;;;;;;;;;;2.80;99.90;;;;;;5029804;28;19925;-73
2022/12/03 08:40:54;;;;;;;;;;;2.80;99.90;;;;;;5030416;28;19950;-73
2022/12/03 08:43:24;;;;;;;;;;;2.80;99.90;;;;;;5029021;28;19970;-72
2022/12/03 08:45:51;;;;;;;;;;;2.80;99.90;;;;;;5030751;28;20276;-73
2022/12/03 08:48:26;;;;;;;;;;;3.00;99.90;;;;;;5046331;28;20032;-70
2022/12/03 08:50:53;;;;;;;;;;;2.80;99.90;;;;;;5046109;28;19975;-73
2022/12/03 08:53:22;;;;;;;;;;;2.80;99.90;;;;;;5029812;28;20020;-73
2022/12/03 08:55:51;;;;;;;;;;;2.80;99.90;;;;;;5045419;28;20335;-75
2022/12/03 08:58:30;;;;;;;;;;;2.70;99.90;;;;;;5046223;28;19926;-71
2022/12/03 09:00:57;;;;;;;;;;;2.80;99.90;;;;;;4996620;28;20274;-74
2022/12/03 09:03:23;;;;;;;;;;;2.70;99.90;;;;;;5045858;28;19925;-74
2022/12/03 09:05:49;;;;;;;;;;;2.80;99.90;;;;;;5046107;28;19957;-73
2022/12/03 09:08:14;;;;;;;;;;;2.90;99.90;;;;;;5062797;28;20036;-73
2022/12/03 09:10:40;;;;;;;;;;;2.70;99.90;;;;;;5062883;28;20027;-73
2022/12/03 09:13:05;;;;;;;;;;;2.70;99.90;;;;;;5030212;28;19968;-72
2022/12/03 09:15:31;;;;;;;;;;;2.70;99.90;;;;;;5046010;28;19931;-72
2022/12/03 09:17:56;;;;;;;;;;;2.70;99.90;;;;;;5029950;28;19994;-72
2022/12/03 09:20:22;;;;;;;;;;;2.70;99.90;;;;;;5030817;28;20328;-72
2022/12/03 09:22:48;;;;;;;;;;;2.70;99.90;;;;;;5046250;28;19964;-73
2022/12/03 09:25:13;;;;;;;;;;;2.60;99.90;;;;;;5030312;28;19929;-72
2022/12/03 09:27:39;;;;;;;;;;;2.70;99.90;;;;;;5029216;28;19925;-73
2022/12/03 09:30:05;;;;;;;;;;;2.70;99.90;;;;;;5012559;28;19968;-73
2022/12/03 09:32:30;;;;;;;;;;;2.60;99.90;;;;;;5030137;28;19925;-72
2022/12/03 09:34:57;;;;;;;;;;;2.90;99.90;;;;;;5062226;28;19969;-73
2022/12/03 09:37:22;;;;;;;;;;;2.60;99.90;;;;;;5045889;28;19976;-73
2022/12/03 09:39:48;;;;;;;;;;;2.60;99.90;;;;;;5013003;28;19975;-73
2022/12/03 09:42:14;;;;;;;;;;;2.60;99.90;;;;;;5045321;28;19933;-73
2022/12/03 09:44:39;;;;;;;;;;;2.60;99.90;;;;;;5029026;28;19925;-69
2022/12/03 09:47:05;;;;;;;;;;;2.60;99.90;;;;;;5030108;28;19932;-71
2022/12/03 09:49:32;;;;;;;;;;;2.60;99.90;;;;;;5045886;28;19932;-72
2022/12/03 09:51:59;;;;;;;;;;;2.60;99.90;;;;;;5045318;28;19933;-72
2022/12/03 09:54:26;;;;;;;;;;;2.50;99.90;;;;;;5012135;28;20023;-72
2022/12/03 09:56:52;;;;;;;;;;;2.60;99.90;;;;;;5028550;28;19932;-70
2022/12/03 09:59:19;;;;;;;;;;;2.70;99.90;;;;;;5012290;28;19921;-74
2022/12/03 10:01:44;;;;;;;;;;;2.60;99.90;;;;;;5012559;28;20270;-72
2022/12/03 10:04:10;;;;;;;;;;;2.60;99.90;;;;;;5029464;28;19925;-72
2022/12/03 10:06:36;;;;;;;;;;;2.60;99.90;;;;;;5045149;28;19925;-70
2022/12/03 10:09:02;;;;;;;;;;;2.60;99.90;;;;;;5044740;28;19974;-73
2022/12/03 10:11:27;;;;;;;;;;;2.60;99.90;;;;;;5028479;28;19926;-74
2022/12/03 10:13:54;;;;;;;;;;;2.60;99.90;;;;;;5045414;28;20023;-72
2022/12/03 10:16:19;;;;;;;;;;;2.70;99.90;;;;;;5011854;28;19960;-72
2022/12/03 10:18:53;;;;;;;;;;;2.60;99.90;;;;;;5029596;28;20367;-74
2022/12/03 10:21:22;;;;;;;;;;;2.60;99.90;;;;;;5012211;28;19932;-72
2022/12/03 10:23:49;;;;;;;;;;;2.60;99.90;;;;;;5045231;28;19925;-72
2022/12/03 10:26:15;;;;;;;;;;;2.80;99.90;;;;;;5029769;28;19983;-71
2022/12/03 10:28:42;;;;;;;;;;;2.50;99.90;;;;;;5012060;28;19995;-72
2022/12/03 10:31:09;;;;;;;;;;;2.90;99.90;;;;;;5029489;28;19980;-70
2022/12/03 10:33:36;;;;;;;;;;;2.60;99.90;;;;;;5045206;28;19925;-72
2022/12/03 10:36:15;;;;;;;;;;;2.50;99.90;;;;;;5011643;28;19932;-71
2022/12/03 10:38:41;;;;;;;;;;;2.60;99.90;;;;;;5044660;28;20280;-70
2022/12/03 10:41:21;;;;;;;;;;;2.60;99.90;;;;;;5011483;28;20083;-75
2022/12/03 10:43:46;;;;;;;;;;;2.60;99.90;;;;;;5011619;28;19925;-73
2022/12/03 10:46:15;;;;;;;;;;;2.60;99.90;;;;;;5028865;28;19936;-72
2022/12/03 10:48:41;;;;;;;;;;;2.60;99.90;;;;;;5028352;28;19925;-71
2022/12/03 10:51:19;;;;;;;;;;;2.60;99.90;;;;;;5028951;28;19932;-72
2022/12/03 10:53:45;;;;;;;;;;;2.70;99.90;;;;;;5029496;28;19948;-73
2022/12/03 10:56:13;;;;;;;;;;;2.70;99.90;;;;;;5044225;28;19932;-71
2022/12/03 10:58:39;;;;;;;;;;;3.00;99.90;;;;;;5011754;28;20324;-71
2022/12/03 11:01:09;;;;;;;;;;;2.70;99.90;;;;;;5027793;28;19928;-74
2022/12/03 11:03:35;;;;;;;;;;;2.70;99.90;;;;;;5044425;28;19928;-73
2022/12/03 11:06:01;;;;;;;;;;;3.10;99.90;;;;;;5029195;28;19925;-71
2022/12/03 11:08:29;;;;;;;;;;;2.70;99.90;;;;;;5014154;28;19925;-76
2022/12/03 11:10:59;;;;;;;;;;;2.80;99.90;;;;;;5048198;28;19926;-72
2022/12/03 11:13:41;;;;;;;;;;;2.70;99.90;;;;;;5031288;28;19925;-73
2022/12/03 11:16:07;;;;;;;;;;;2.70;99.90;;;;;;5014611;28;19926;-74
2022/12/03 11:18:35;;;;;;;;;;;3.50;99.90;;;;;;5032469;28;19932;-72
2022/12/03 11:21:01;;;;;;;;;;;2.70;99.90;;;;;;5064685;28;19925;-73
2022/12/03 11:23:45;;;;;;;;;;;2.70;99.90;;;;;;5047921;28;20102;-73
2022/12/03 11:26:18;;;;;;;;;;;2.70;99.90;;;;;;5047956;28;20013;-72
2022/12/03 11:28:53;;;;;;;;;;;2.70;99.90;;;;;;5031440;28;19929;-73
2022/12/03 11:31:37;;;;;;;;;;;2.70;99.90;;;;;;5064596;27;19926;-76
2022/12/03 11:34:15;;;;;;;;;;;2.70;99.90;;;;;;5047658;28;19933;-74
2022/12/03 11:36:59;;;;;;;;;;;2.60;99.90;;;;;;5047462;28;20314;-71
2022/12/03 11:39:43;;;;;;;;;;;2.70;99.90;;;;;;5031848;28;19931;-73
2022/12/03 11:42:24;;;;;;;;;;;2.60;99.90;;;;;;5043045;28;19940;-73
2022/12/03 11:45:05;;;;;;;;;;;2.60;99.90;;;;;;5046391;28;20021;-72
2022/12/03 11:47:32;;;;;;;;;;;2.60;99.90;;;;;;5046386;28;19925;-73
2022/12/03 11:49:58;;;;;;;;;;;2.60;99.90;;;;;;5045543;28;19932;-73
2022/12/03 11:52:26;;;;;;;;;;;2.60;99.90;;;;;;5045058;28;19930;-72
2022/12/03 11:55:03;;;;;;;;;;;2.70;99.90;;;;;;5047302;28;20019;-76
2022/12/03 11:57:31;;;;;;;;;;;2.60;99.90;;;;;;5013571;28;20336;-74
2022/12/03 11:59:58;;;;;;;;;;;2.60;99.90;;;;;;4997081;28;20007;-70
2022/12/03 12:02:24;;;;;;;;;;;2.60;99.90;;;;;;5030450;28;19932;-72
2022/12/03 12:04:49;;;;;;;;;;;2.70;99.90;;;;;;5031556;28;19925;-69
2022/12/03 12:07:34;;;;;;;;;;;2.60;99.90;;;;;;5029020;28;19970;-70
2022/12/03 12:09:59;;;;;;;;;;;2.70;99.90;;;;;;5031803;28;20045;-74
2022/12/03 12:12:29;;;;;;;;;;;2.70;99.90;;;;;;5044676;28;19925;-74
2022/12/03 12:14:56;;;;;;;;;;;2.70;99.90;;;;;;5031350;28;19929;-72
2022/12/03 12:17:41;;;;;;;;;;;3.20;99.90;;;;;;5013900;28;19925;-73
2022/12/03 12:20:19;;;;;;;;;;;2.70;99.90;;;;;;5013736;28;19928;-73
2022/12/03 12:22:45;;;;;;;;;;;2.60;99.90;;;;;;5031513;28;19956;-76
2022/12/03 12:25:29;;;;;;;;;;;2.80;99.90;;;;;;5046995;28;19983;-74
2022/12/03 12:27:55;;;;;;;;;;;2.70;99.90;;;;;;5046879;28;20301;-72
2022/12/03 12:30:22;;;;;;;;;;;3.20;99.90;;;;;;5031261;28;19925;-73
2022/12/03 12:32:52;;;;;;;;;;;2.60;99.90;;;;;;5030328;28;19925;-72
2022/12/03 12:35:21;;;;;;;;;;;2.60;99.90;;;;;;5013321;28;19926;-75
2022/12/03 12:37:47;;;;;;;;;;;2.60;99.90;;;;;;5046962;28;19936;-73
2022/12/03 12:40:14;;;;;;;;;;;3.10;99.90;;;;;;5047193;28;20112;-73
2022/12/03 12:42:48;;;;;;;;;;;2.60;99.90;;;;;;5045039;28;19926;-74
2022/12/03 12:45:16;;;;;;;;;;;2.60;99.90;;;;;;4997480;28;20020;-72
2022/12/03 12:47:45;;;;;;;;;;;2.60;99.90;;;;;;5046763;28;19932;-71
2022/12/03 12:50:11;;;;;;;;;;;2.60;99.90;;;;;;4993875;28;20012;-72
2022/12/03 12:52:39;;;;;;;;;;;2.60;99.90;;;;;;5013772;28;20012;-72
2022/12/03 12:55:05;;;;;;;;;;;2.60;99.90;;;;;;5012328;28;19925;-72
2022/12/03 12:57:32;;;;;;;;;;;2.60;99.90;;;;;;5012805;28;20386;-73
2022/12/03 12:59:58;;;;;;;;;;;2.60;99.90;;;;;;5046118;28;19925;-74
2022/12/03 13:02:29;;;;;;;;;;;2.50;99.90;;;;;;5046287;28;20339;-75
2022/12/03 13:04:55;;;;;;;;;;;2.50;99.90;;;;;;5029812;28;19925;-70
2022/12/03 13:07:21;;;;;;;;;;;2.60;99.90;;;;;;5046963;28;19936;-78
2022/12/03 13:09:50;;;;;;;;;;;2.70;99.90;;;;;;5014062;28;19972;-75
2022/12/03 13:12:19;;;;;;;;;;;2.50;99.90;;;;;;5012849;28;19960;-75
2022/12/03 13:14:44;;;;;;;;;;;2.70;99.90;;;;;;5030956;28;19976;-73
2022/12/03 13:17:14;;;;;;;;;;;2.50;99.90;;;;;;5046522;28;19983;-76
2022/12/03 13:19:40;;;;;;;;;;;2.40;99.90;;;;;;5046296;28;20302;-73
2022/12/03 13:22:11;;;;;;;;;;;2.40;99.90;;;;;;5013493;28;19926;-71
2022/12/03 13:24:38;;;;;;;;;;;2.40;99.90;;;;;;5030441;28;19925;-74
2022/12/03 13:27:12;;;;;;;;;;;2.40;99.90;;;;;;5030807;28;19937;-74
2022/12/03 13:29:38;;;;;;;;;;;2.40;99.90;;;;;;5045376;28;20073;-72
2022/12/03 13:32:09;;;;;;;;;;;2.40;99.90;;;;;;5046242;28;20012;-74
2022/12/03 13:34:35;;;;;;;;;;;2.40;99.90;;;;;;5030502;28;20027;-73
2022/12/03 13:37:01;;;;;;;;;;;2.40;99.90;;;;;;5062643;28;20069;-72
2022/12/03 13:39:31;;;;;;;;;;;2.40;99.90;;;;;;5030144;28;19955;-74
2022/12/03 13:44:47;;;;;;;;;;;2.70;99.90;;;;;;5045758;28;19936;-73
2022/12/03 13:47:14;;;;;;;;;;;2.40;99.90;;;;;;5045310;28;19925;-74
2022/12/03 13:49:39;;;;;;;;;;;2.30;99.90;;;;;;5030085;28;20294;-72
2022/12/03 13:52:09;;;;;;;;;;;2.30;99.90;;;;;;5030452;28;19932;-73
2022/12/03 13:54:38;;;;;;;;;;;2.70;99.90;;;;;;5044964;28;20020;-72
2022/12/03 13:57:05;;;;;;;;;;;2.30;99.90;;;;;;5045483;28;20001;-72
2022/12/03 13:59:31;;;;;;;;;;;2.30;99.90;;;;;;5044978;27;19926;-73
2022/12/03 14:01:56;;;;;;;;;;;2.80;99.90;;;;;;5012444;28;20029;-72
2022/12/03 14:04:22;;;;;;;;;;;2.30;99.90;;;;;;5044997;28;20347;-73
2022/12/03 14:06:47;;;;;;;;;;;2.20;99.90;;;;;;5029679;28;20336;-73
2022/12/03 14:09:13;;;;;;;;;;;2.20;99.90;;;;;;5045076;28;19960;-71
2022/12/03 14:14:23;;;;;;;;;;;2.20;99.90;;;;;;5045409;28;19925;-72
2022/12/03 14:16:48;;;;;;;;;;;2.20;99.90;;;;;;5029394;28;19921;-73
2022/12/03 14:19:14;;;;;;;;;;;2.20;99.90;;;;;;5029684;28;19996;-71
2022/12/03 14:21:39;;;;;;;;;;;2.20;99.90;;;;;;5044516;28;19925;-71
2022/12/03 14:24:05;;;;;;;;;;;2.50;99.90;;;;;;5029767;28;19925;-71
2022/12/03 14:26:31;;;;;;;;;;;2.20;99.90;;;;;;5029843;28;19986;-71
2022/12/03 14:28:56;;;;;;;;;;;1.80;99.90;;;;;;5028605;28;19925;-76
2022/12/03 14:31:22;;;;;;;;;;;2.20;99.90;;;;;;5012089;28;19925;-71
2022/12/03 14:33:47;;;;;;;;;;;2.60;99.90;;;;;;5029184;28;19925;-71
2022/12/03 14:36:13;;;;;;;;;;;2.20;99.90;;;;;;5044819;28;19929;-70
2022/12/03 14:38:38;;;;;;;;;;;2.10;99.90;;;;;;5029041;28;20330;-71
2022/12/03 14:42:11;;;;;;;;;;;2.10;99.90;;;;;;5044196;28;19929;-79
2022/12/03 14:43:50;;;;;;;;;;;1.90;99.90;;;;;;5009409;28;19940;-70
2022/12/03 14:46:15;;;;;;;;;;;2.10;99.90;;;;;;5044435;28;19932;-70
2022/12/03 14:48:41;;;;;;;;;;;2.10;99.90;;;;;;5027248;28;19931;-71
2022/12/03 14:51:06;;;;;;;;;;;2.10;99.90;;;;;;5027029;28;19945;-70
2022/12/03 14:53:32;;;;;;;;;;;2.10;99.90;;;;;;5043138;28;19947;-74
2022/12/03 14:55:58;;;;;;;;;;;2.10;99.90;;;;;;5027427;28;19973;-71
2022/12/03 14:58:25;;;;;;;;;;;2.10;99.90;;;;;;5010928;28;19933;-71
2022/12/03 15:00:51;;;;;;;;;;;2.30;99.90;;;;;;5010108;28;20266;-71